sensor_id;sensor_type;location;lat;lon;timestamp;pressure;altitude;pressure_sealevel;temperature;humidity
10706;BME280;5404;42.656;23.336;2023-02-27T00:00:28;93930.91;;;11.27;100.00
10706;BME280;5404;42.656;23.336;2023-02-27T00:02:54;93923.25;;;11.26;100.00
10706;BME280;5404;42.656;23.336;2023-02-27T00:05:20;93950.44;;;11.11;100.00
10706;BME280;5404;42.656;23.336;2023-02-27T00:07:47;93932.56;;;11.03;100.00
10706;BME280;5404;42.656;23.336;2023-02-27T00:10:13;93939.91;;;11.14;100.00
10706;BME280;5404;42.656;23.336;2023-02-27T00:12:39;93939.59;;;11.16;100.00
10706;BME280;5404;42.656;23.336;2023-02-27T00:15:17;93916.97;;;11.22;100.00
10706;BME280;5404;42.656;23.336;2023-02-27T00:17:44;93941.63;;;11.19;100.00
10706;BME280;5404;42.656;23.336;2023-02-27T00:20:13;93945.41;;;11.18;100.00
10706;BME280;5404;42.656;23.336;2023-02-27T00:22:39;93896.22;;;10.90;100.00
10706;BME280;5404;42.656;23.336;2023-02-27T00:25:05;93923.63;;;11.07;100.00
10706;BME280;5404;42.656;23.336;2023-02-27T00:27:32;93939.91;;;11.14;100.00
10706;BME280;5404;42.656;23.336;2023-02-27T00:29:58;93936.31;;;11.10;100.00
10706;BME280;5404;42.656;23.336;2023-02-27T00:32:24;93932.22;;;11.04;100.00
10706;BME280;5404;42.656;23.336;2023-02-27T00:34:49;93941.81;;;11.05;100.00
10706;BME280;5404;42.656;23.336;2023-02-27T00:37:15;93931.94;;;11.06;100.00
10706;BME280;5404;42.656;23.336;2023-02-27T00:39:42;93939.47;;;11.04;100.00
10706;BME280;5404;42.656;23.336;2023-02-27T00:42:08;93924.41;;;10.99;100.00
10706;BME280;5404;42.656;23.336;2023-02-27T00:44:36;93924.88;;;11.01;100.00
10706;BME280;5404;42.656;23.336;2023-02-27T00:47:02;93927.38;;;11.06;100.00
10706;BME280;5404;42.656;23.336;2023-02-27T00:49:28;93915.94;;;11.06;100.00
10706;BME280;5404;42.656;23.336;2023-02-27T00:51:54;93915.94;;;11.06;100.00
10706;BME280;5404;42.656;23.336;2023-02-27T00:54:19;93851.78;;;10.56;100.00
10706;BME280;5404;42.656;23.336;2023-02-27T00:56:45;93917.97;;;11.09;100.00
10706;BME280;5404;42.656;23.336;2023-02-27T00:59:10;93918.50;;;10.85;100.00
10706;BME280;5404;42.656;23.336;2023-02-27T01:01:36;93938.97;;;11.10;100.00
10706;BME280;5404;42.656;23.336;2023-02-27T01:04:01;93933.63;;;11.10;100.00
10706;BME280;5404;42.656;23.336;2023-02-27T01:06:27;93931.63;;;11.07;100.00
10706;BME280;5404;42.656;23.336;2023-02-27T01:08:52;93933.31;;;11.12;100.00
10706;BME280;5404;42.656;23.336;2023-02-27T01:11:21;93957.94;;;11.17;100.00
10706;BME280;5404;42.656;23.336;2023-02-27T01:13:47;93945.06;;;11.19;100.00
10706;BME280;5404;42.656;23.336;2023-02-27T01:16:13;93947.88;;;11.23;100.00
10706;BME280;5404;42.656;23.336;2023-02-27T01:18:39;93930.69;;;11.03;100.00
10706;BME280;5404;42.656;23.336;2023-02-27T01:21:06;93940.19;;;11.13;100.00
10706;BME280;5404;42.656;23.336;2023-02-27T01:23:31;93938.81;;;11.15;100.00
10706;BME280;5404;42.656;23.336;2023-02-27T01:25:56;93943.34;;;11.15;100.00
10706;BME280;5404;42.656;23.336;2023-02-27T01:28:22;93935.81;;;11.17;100.00
10706;BME280;5404;42.656;23.336;2023-02-27T01:30:47;93928.97;;;10.99;100.00
10706;BME280;5404;42.656;23.336;2023-02-27T01:33:14;93933.28;;;11.20;100.00
10706;BME280;5404;42.656;23.336;2023-02-27T01:35:40;93948.31;;;11.25;100.00
10706;BME280;5404;42.656;23.336;2023-02-27T01:38:06;93953.97;;;11.23;100.00
10706;BME280;5404;42.656;23.336;2023-02-27T01:40:37;93950.06;;;11.29;100.00
10706;BME280;5404;42.656;23.336;2023-02-27T01:43:04;93969.63;;;11.33;100.00
10706;BME280;5404;42.656;23.336;2023-02-27T01:45:36;93995.38;;;11.38;100.00
10706;BME280;5404;42.656;23.336;2023-02-27T01:48:25;94004.91;;;11.39;100.00
10706;BME280;5404;42.656;23.336;2023-02-27T01:50:57;94005.72;;;11.39;100.00
10706;BME280;5404;42.656;23.336;2023-02-27T01:53:27;93999.91;;;11.37;100.00
10706;BME280;5404;42.656;23.336;2023-02-27T01:55:57;94004.63;;;11.32;100.00
10706;BME280;5404;42.656;23.336;2023-02-27T01:58:25;93998.34;;;11.36;100.00
10706;BME280;5404;42.656;23.336;2023-02-27T02:00:51;93965.41;;;11.32;100.00
10706;BME280;5404;42.656;23.336;2023-02-27T02:03:42;93985.81;;;11.28;100.00
10706;BME280;5404;42.656;23.336;2023-02-27T02:06:11;93997.56;;;11.27;100.00
10706;BME280;5404;42.656;23.336;2023-02-27T02:08:47;94014.22;;;11.24;100.00
10706;BME280;5404;42.656;23.336;2023-02-27T02:11:16;94053.59;;;11.19;100.00
10706;BME280;5404;42.656;23.336;2023-02-27T02:13:43;94050.16;;;11.10;100.00
10706;BME280;5404;42.656;23.336;2023-02-27T02:16:27;94050.94;;;10.93;100.00
10706;BME280;5404;42.656;23.336;2023-02-27T02:33:39;94237.63;;;9.30;100.00
10706;BME280;5404;42.656;23.336;2023-02-27T02:39:13;94227.22;;;9.20;100.00
10706;BME280;5404;42.656;23.336;2023-02-27T02:44:40;94249.28;;;9.07;100.00
10706;BME280;5404;42.656;23.336;2023-02-27T02:47:32;94260.91;;;9.11;100.00
10706;BME280;5404;42.656;23.336;2023-02-27T02:50:13;94274.09;;;9.16;100.00
10706;BME280;5404;42.656;23.336;2023-02-27T02:52:50;94276.22;;;9.27;100.00
10706;BME280;5404;42.656;23.336;2023-02-27T02:55:41;94287.91;;;9.40;100.00
10706;BME280;5404;42.656;23.336;2023-02-27T02:58:33;94315.31;;;9.40;100.00
10706;BME280;5404;42.656;23.336;2023-02-27T03:01:20;94314.31;;;9.36;100.00
10706;BME280;5404;42.656;23.336;2023-02-27T03:03:57;94324.34;;;9.39;100.00
10706;BME280;5404;42.656;23.336;2023-02-27T03:06:33;94332.03;;;9.41;100.00
10706;BME280;5404;42.656;23.336;2023-02-27T03:09:51;94360.13;;;9.33;100.00
10706;BME280;5404;42.656;23.336;2023-02-27T03:11:53;94371.13;;;9.27;100.00
10706;BME280;5404;42.656;23.336;2023-02-27T03:14:34;94319.28;;;9.02;100.00
10706;BME280;5404;42.656;23.336;2023-02-27T03:17:06;94328.59;;;9.13;100.00
10706;BME280;5404;42.656;23.336;2023-02-27T03:19:42;94350.06;;;9.17;100.00
10706;BME280;5404;42.656;23.336;2023-02-27T03:22:15;94347.00;;;9.10;100.00
10706;BME280;5404;42.656;23.336;2023-02-27T03:24:50;94351.56;;;9.09;100.00
10706;BME280;5404;42.656;23.336;2023-02-27T03:27:18;94373.47;;;8.74;100.00
10706;BME280;5404;42.656;23.336;2023-02-27T03:29:49;94393.22;;;8.36;100.00
10706;BME280;5404;42.656;23.336;2023-02-27T03:32:26;94423.69;;;8.01;100.00
10706;BME280;5404;42.656;23.336;2023-02-27T03:34:55;94446.81;;;7.82;100.00
10706;BME280;5404;42.656;23.336;2023-02-27T03:37:44;94438.47;;;7.70;100.00
10706;BME280;5404;42.656;23.336;2023-02-27T03:48:23;94467.47;;;7.38;100.00
10706;BME280;5404;42.656;23.336;2023-02-27T03:50:49;94459.94;;;7.27;100.00
10706;BME280;5404;42.656;23.336;2023-02-27T03:57:04;94467.94;;;7.22;100.00
10706;BME280;5404;42.656;23.336;2023-02-27T03:59:23;94471.91;;;7.19;100.00
10706;BME280;5404;42.656;23.336;2023-02-27T04:01:50;94473.00;;;7.18;100.00
10706;BME280;5404;42.656;23.336;2023-02-27T04:04:16;94481.69;;;7.24;100.00
10706;BME280;5404;42.656;23.336;2023-02-27T04:06:47;94478.75;;;7.25;100.00
10706;BME280;5404;42.656;23.336;2023-02-27T04:09:47;94480.84;;;7.28;100.00
10706;BME280;5404;42.656;23.336;2023-02-27T04:15:18;94489.19;;;7.17;100.00
10706;BME280;5404;42.656;23.336;2023-02-27T04:18:04;94466.69;;;6.85;100.00
10706;BME280;5404;42.656;23.336;2023-02-27T04:20:52;94490.84;;;7.07;100.00
10706;BME280;5404;42.656;23.336;2023-02-27T04:23:40;94514.75;;;7.02;100.00
10706;BME280;5404;42.656;23.336;2023-02-27T04:26:32;94516.41;;;6.93;100.00
10706;BME280;5404;42.656;23.336;2023-02-27T04:29:14;94518.03;;;6.89;100.00
10706;BME280;5404;42.656;23.336;2023-02-27T04:32:05;94503.97;;;6.94;100.00
10706;BME280;5404;42.656;23.336;2023-02-27T04:34:38;94530.44;;;6.94;100.00
10706;BME280;5404;42.656;23.336;2023-02-27T04:37:21;94539.19;;;6.94;100.00
10706;BME280;5404;42.656;23.336;2023-02-27T04:40:17;94557.22;;;6.92;100.00
10706;BME280;5404;42.656;23.336;2023-02-27T04:42:47;94557.78;;;6.89;100.00
10706;BME280;5404;42.656;23.336;2023-02-27T04:45:17;94522.00;;;6.58;100.00
10706;BME280;5404;42.656;23.336;2023-02-27T04:47:57;94527.81;;;6.55;100.00
10706;BME280;5404;42.656;23.336;2023-02-27T04:50:34;94578.75;;;6.81;100.00
10706;BME280;5404;42.656;23.336;2023-02-27T04:53:07;94587.94;;;6.88;100.00
10706;BME280;5404;42.656;23.336;2023-02-27T04:55:51;94598.78;;;6.92;100.00
10706;BME280;5404;42.656;23.336;2023-02-27T04:58:33;94586.91;;;6.89;100.00
10706;BME280;5404;42.656;23.336;2023-02-27T05:01:04;94597.97;;;6.91;100.00
10706;BME280;5404;42.656;23.336;2023-02-27T05:03:34;94593.25;;;6.88;100.00
10706;BME280;5404;42.656;23.336;2023-02-27T05:06:04;94594.88;;;6.84;100.00
10706;BME280;5404;42.656;23.336;2023-02-27T05:08:36;94549.78;;;6.56;100.00
10706;BME280;5404;42.656;23.336;2023-02-27T05:11:22;94616.06;;;6.79;100.00
10706;BME280;5404;42.656;23.336;2023-02-27T05:14:05;94607.69;;;6.67;100.00
10706;BME280;5404;42.656;23.336;2023-02-27T05:16:41;94626.41;;;6.76;100.00
10706;BME280;5404;42.656;23.336;2023-02-27T05:19:09;94621.13;;;6.76;100.00
10706;BME280;5404;42.656;23.336;2023-02-27T05:21:38;94628.81;;;6.77;100.00
10706;BME280;5404;42.656;23.336;2023-02-27T05:24:57;94635.13;;;6.81;100.00
10706;BME280;5404;42.656;23.336;2023-02-27T05:27:29;94651.25;;;6.85;100.00
10706;BME280;5404;42.656;23.336;2023-02-27T05:30:05;94619.34;;;6.66;100.00
10706;BME280;5404;42.656;23.336;2023-02-27T05:32:54;94643.00;;;6.91;100.00
10706;BME280;5404;42.656;23.336;2023-02-27T05:35:37;94656.69;;;7.03;100.00
10706;BME280;5404;42.656;23.336;2023-02-27T05:40:48;94655.25;;;7.21;100.00
10706;BME280;5404;42.656;23.336;2023-02-27T05:43:24;94666.94;;;7.20;100.00
10706;BME280;5404;42.656;23.336;2023-02-27T05:45:58;94663.97;;;7.27;100.00
10706;BME280;5404;42.656;23.336;2023-02-27T05:48:29;94660.66;;;7.40;100.00
10706;BME280;5404;42.656;23.336;2023-02-27T05:50:57;94642.38;;;7.38;100.00
10706;BME280;5404;42.656;23.336;2023-02-27T05:53:27;94657.44;;;7.48;100.00
10706;BME280;5404;42.656;23.336;2023-02-27T05:55:57;94657.44;;;7.48;100.00
10706;BME280;5404;42.656;23.336;2023-02-27T05:58:43;94661.13;;;7.47;100.00
10706;BME280;5404;42.656;23.336;2023-02-27T06:01:10;94658.78;;;7.45;100.00
10706;BME280;5404;42.656;23.336;2023-02-27T06:03:39;94666.69;;;7.50;100.00
10706;BME280;5404;42.656;23.336;2023-02-27T06:06:13;94676.69;;;7.58;100.00
10706;BME280;5404;42.656;23.336;2023-02-27T06:08:40;94678.69;;;7.71;100.00
10706;BME280;5404;42.656;23.336;2023-02-27T06:11:06;94680.00;;;7.74;100.00
10706;BME280;5404;42.656;23.336;2023-02-27T06:13:32;94675.44;;;7.79;100.00
10706;BME280;5404;42.656;23.336;2023-02-27T06:15:58;94682.50;;;7.89;100.00
10706;BME280;5404;42.656;23.336;2023-02-27T06:18:23;94680.84;;;7.98;100.00
10706;BME280;5404;42.656;23.336;2023-02-27T06:20:49;94673.53;;;8.08;100.00
10706;BME280;5404;42.656;23.336;2023-02-27T06:23:15;94667.28;;;8.23;100.00
10706;BME280;5404;42.656;23.336;2023-02-27T06:25:41;94643.53;;;8.13;100.00
10706;BME280;5404;42.656;23.336;2023-02-27T06:28:07;94677.81;;;8.33;100.00
10706;BME280;5404;42.656;23.336;2023-02-27T06:30:34;94652.13;;;8.29;100.00
10706;BME280;5404;42.656;23.336;2023-02-27T06:33:00;94672.16;;;8.40;100.00
10706;BME280;5404;42.656;23.336;2023-02-27T06:35:28;94642.44;;;8.14;100.00
10706;BME280;5404;42.656;23.336;2023-02-27T06:37:55;94673.59;;;8.32;100.00
10706;BME280;5404;42.656;23.336;2023-02-27T06:40:20;94689.53;;;8.32;100.00
10706;BME280;5404;42.656;23.336;2023-02-27T06:42:46;94689.91;;;8.44;100.00
10706;BME280;5404;42.656;23.336;2023-02-27T06:45:13;94674.81;;;8.40;100.00
10706;BME280;5404;42.656;23.336;2023-02-27T06:47:39;94695.94;;;8.50;100.00
10706;BME280;5404;42.656;23.336;2023-02-27T06:50:06;94692.50;;;8.49;100.00
10706;BME280;5404;42.656;23.336;2023-02-27T06:52:32;94670.56;;;8.15;100.00
10706;BME280;5404;42.656;23.336;2023-02-27T06:54:58;94689.47;;;8.37;100.00
10706;BME280;5404;42.656;23.336;2023-02-27T06:57:24;94677.31;;;8.31;100.00
10706;BME280;5404;42.656;23.336;2023-02-27T06:59:49;94684.91;;;8.38;100.00
10706;BME280;5404;42.656;23.336;2023-02-27T07:02:16;94674.88;;;8.35;100.00
10706;BME280;5404;42.656;23.336;2023-02-27T07:04:42;94677.31;;;8.31;100.00
10706;BME280;5404;42.656;23.336;2023-02-27T07:07:08;94682.06;;;8.34;100.00
10706;BME280;5404;42.656;23.336;2023-02-27T07:09:34;94692.06;;;8.42;100.00
10706;BME280;5404;42.656;23.336;2023-02-27T07:12:03;94677.63;;;8.48;100.00
10706;BME280;5404;42.656;23.336;2023-02-27T07:14:29;94690.84;;;8.53;100.00
10706;BME280;5404;42.656;23.336;2023-02-27T07:16:54;94697.25;;;8.52;100.00
10706;BME280;5404;42.656;23.336;2023-02-27T07:19:22;94697.97;;;8.58;100.00
10706;BME280;5404;42.656;23.336;2023-02-27T07:21:49;94694.81;;;8.56;100.00
10706;BME280;5404;42.656;23.336;2023-02-27T07:24:15;94687.06;;;8.59;100.00
10706;BME280;5404;42.656;23.336;2023-02-27T07:26:41;94697.63;;;8.64;100.00
10706;BME280;5404;42.656;23.336;2023-02-27T07:29:06;94701.47;;;8.53;100.00
10706;BME280;5404;42.656;23.336;2023-02-27T07:31:33;94708.72;;;8.48;100.00
10706;BME280;5404;42.656;23.336;2023-02-27T07:33:58;94707.53;;;8.35;100.00
10706;BME280;5404;42.656;23.336;2023-02-27T07:36:24;94715.25;;;8.55;100.00
10706;BME280;5404;42.656;23.336;2023-02-27T07:38:49;94701.09;;;8.65;100.00
10706;BME280;5404;42.656;23.336;2023-02-27T07:41:16;94697.91;;;8.63;100.00
10706;BME280;5404;42.656;23.336;2023-02-27T07:43:42;94673.09;;;8.30;100.00
10706;BME280;5404;42.656;23.336;2023-02-27T07:46:07;94710.66;;;8.42;100.00
10706;BME280;5404;42.656;23.336;2023-02-27T07:48:33;94714.25;;;8.51;100.00
10706;BME280;5404;42.656;23.336;2023-02-27T07:51:02;94713.47;;;8.51;100.00
10706;BME280;5404;42.656;23.336;2023-02-27T07:53:28;94717.91;;;8.32;100.00
10706;BME280;5404;42.656;23.336;2023-02-27T07:55:54;94717.28;;;8.40;100.00
10706;BME280;5404;42.656;23.336;2023-02-27T07:58:19;94674.72;;;8.26;100.00
10706;BME280;5404;42.656;23.336;2023-02-27T08:00:45;94721.03;;;8.62;100.00
10706;BME280;5404;42.656;23.336;2023-02-27T08:03:10;94728.19;;;8.38;100.00
10706;BME280;5404;42.656;23.336;2023-02-27T08:05:36;94711.97;;;8.40;100.00
10706;BME280;5404;42.656;23.336;2023-02-27T08:08:02;94727.94;;;8.63;100.00
10706;BME280;5404;42.656;23.336;2023-02-27T08:10:29;94722.72;;;8.77;100.00
10706;BME280;5404;42.656;23.336;2023-02-27T08:12:54;94722.31;;;9.07;100.00
10706;BME280;5404;42.656;23.336;2023-02-27T08:15:20;94628.16;;;8.76;100.00
10706;BME280;5404;42.656;23.336;2023-02-27T08:17:46;94716.34;;;9.52;100.00
10706;BME280;5404;42.656;23.336;2023-02-27T08:20:14;94707.81;;;9.69;100.00
10706;BME280;5404;42.656;23.336;2023-02-27T08:22:40;94718.59;;;9.77;100.00
10706;BME280;5404;42.656;23.336;2023-02-27T08:25:07;94718.31;;;9.79;100.00
10706;BME280;5404;42.656;23.336;2023-02-27T08:27:35;94718.53;;;9.96;100.00
10706;BME280;5404;42.656;23.336;2023-02-27T08:30:02;94704.84;;;10.34;100.00
10706;BME280;5404;42.656;23.336;2023-02-27T08:32:28;94712.44;;;10.54;100.00
10706;BME280;5404;42.656;23.336;2023-02-27T08:34:53;94706.06;;;10.42;100.00
10706;BME280;5404;42.656;23.336;2023-02-27T08:37:19;94712.34;;;10.46;100.00
10706;BME280;5404;42.656;23.336;2023-02-27T08:39:44;94709.50;;;10.42;100.00
10706;BME280;5404;42.656;23.336;2023-02-27T08:42:10;94667.19;;;10.27;100.00
10706;BME280;5404;42.656;23.336;2023-02-27T08:44:35;94697.97;;;10.47;100.00
10706;BME280;5404;42.656;23.336;2023-02-27T08:47:02;94702.28;;;10.56;100.00
10706;BME280;5404;42.656;23.336;2023-02-27T08:49:28;94699.53;;;10.48;100.00
10706;BME280;5404;42.656;23.336;2023-02-27T08:51:53;94699.91;;;10.82;100.00
10706;BME280;5404;42.656;23.336;2023-02-27T08:54:19;94701.50;;;10.56;100.00
10706;BME280;5404;42.656;23.336;2023-02-27T08:56:45;94702.28;;;10.43;100.00
10706;BME280;5404;42.656;23.336;2023-02-27T08:59:11;94700.53;;;10.52;100.00
10706;BME280;5404;42.656;23.336;2023-02-27T09:01:36;94721.34;;;10.77;100.00
10706;BME280;5404;42.656;23.336;2023-02-27T09:04:03;94733.19;;;10.71;100.00
10706;BME280;5404;42.656;23.336;2023-02-27T09:06:31;94726.16;;;10.75;100.00
10706;BME280;5404;42.656;23.336;2023-02-27T09:08:57;94716.00;;;11.40;100.00
10706;BME280;5404;42.656;23.336;2023-02-27T09:11:23;94721.47;;;11.70;100.00
10706;BME280;5404;42.656;23.336;2023-02-27T09:13:49;94729.97;;;11.23;100.00
10706;BME280;5404;42.656;23.336;2023-02-27T09:16:16;94738.63;;;10.66;100.00
10706;BME280;5404;42.656;23.336;2023-02-27T09:18:42;94731.31;;;10.72;100.00
10706;BME280;5404;42.656;23.336;2023-02-27T09:21:07;94747.47;;;10.48;100.00
10706;BME280;5404;42.656;23.336;2023-02-27T09:23:33;94735.59;;;10.27;100.00
10706;BME280;5404;42.656;23.336;2023-02-27T09:25:58;94745.50;;;10.40;100.00
10706;BME280;5404;42.656;23.336;2023-02-27T09:28:24;94721.06;;;10.06;100.00
10706;BME280;5404;42.656;23.336;2023-02-27T09:30:51;94761.06;;;10.01;100.00
10706;BME280;5404;42.656;23.336;2023-02-27T09:33:17;94744.50;;;10.04;100.00
10706;BME280;5404;42.656;23.336;2023-02-27T09:35:42;94741.50;;;10.10;100.00
10706;BME280;5404;42.656;23.336;2023-02-27T09:38:08;94737.53;;;10.53;100.00
10706;BME280;5404;42.656;23.336;2023-02-27T09:40:39;94746.09;;;10.91;100.00
10706;BME280;5404;42.656;23.336;2023-02-27T09:43:38;94746.41;;;11.03;100.00
10706;BME280;5404;42.656;23.336;2023-02-27T09:46:13;94744.06;;;10.75;100.00
10706;BME280;5404;42.656;23.336;2023-02-27T09:48:46;94740.16;;;11.08;100.00
10706;BME280;5404;42.656;23.336;2023-02-27T09:51:15;94736.97;;;11.33;100.00
10706;BME280;5404;42.656;23.336;2023-02-27T09:53:43;94730.00;;;11.45;100.00
10706;BME280;5404;42.656;23.336;2023-02-27T09:56:31;94754.59;;;11.56;100.00
10706;BME280;5404;42.656;23.336;2023-02-27T09:59:35;94730.22;;;11.35;100.00
10706;BME280;5404;42.656;23.336;2023-02-27T10:02:27;94763.16;;;11.31;100.00
10706;BME280;5404;42.656;23.336;2023-02-27T10:11:04;94771.28;;;10.99;100.00
10706;BME280;5404;42.656;23.336;2023-02-27T10:16:13;94740.00;;;10.50;100.00
10706;BME280;5404;42.656;23.336;2023-02-27T10:19:13;94773.56;;;10.78;100.00
10706;BME280;5404;42.656;23.336;2023-02-27T10:21:48;94774.53;;;10.69;100.00
10706;BME280;5404;42.656;23.336;2023-02-27T10:24:31;94777.41;;;10.86;100.00
10706;BME280;5404;42.656;23.336;2023-02-27T10:27:01;94743.84;;;10.71;100.00
10706;BME280;5404;42.656;23.336;2023-02-27T10:29:33;94763.38;;;10.80;100.00
10706;BME280;5404;42.656;23.336;2023-02-27T10:32:29;94761.28;;;11.04;100.00
10706;BME280;5404;42.656;23.336;2023-02-27T10:37:57;94776.53;;;11.66;100.00
10706;BME280;5404;42.656;23.336;2023-02-27T10:40:23;94748.72;;;12.03;100.00
10706;BME280;5404;42.656;23.336;2023-02-27T10:42:50;94733.84;;;12.41;100.00
10706;BME280;5404;42.656;23.336;2023-02-27T10:45:17;94737.28;;;12.42;100.00
10706;BME280;5404;42.656;23.336;2023-02-27T10:47:42;94746.81;;;12.26;100.00
10706;BME280;5404;42.656;23.336;2023-02-27T10:50:35;94740.06;;;12.28;100.00
10706;BME280;5404;42.656;23.336;2023-02-27T10:53:05;94751.72;;;12.32;100.00
10706;BME280;5404;42.656;23.336;2023-02-27T10:55:35;94749.53;;;12.34;100.00
10706;BME280;5404;42.656;23.336;2023-02-27T10:58:04;94748.78;;;12.42;100.00
10706;BME280;5404;42.656;23.336;2023-02-27T11:00:39;94741.91;;;12.50;100.00
10706;BME280;5404;42.656;23.336;2023-02-27T11:03:06;94753.69;;;12.49;100.00
10706;BME280;5404;42.656;23.336;2023-02-27T11:05:33;94746.81;;;12.56;100.00
10706;BME280;5404;42.656;23.336;2023-02-27T11:08:20;94728.97;;;12.74;100.00
10706;BME280;5404;42.656;23.336;2023-02-27T11:11:18;94725.06;;;12.88;100.00
10706;BME280;5404;42.656;23.336;2023-02-27T11:13:52;94729.16;;;12.86;100.00
10706;BME280;5404;42.656;23.336;2023-02-27T11:16:19;94734.06;;;12.93;100.00
10706;BME280;5404;42.656;23.336;2023-02-27T11:18:49;94722.63;;;13.09;100.00
10706;BME280;5404;42.656;23.336;2023-02-27T11:24:18;94723.78;;;13.25;100.00
10706;BME280;5404;42.656;23.336;2023-02-27T11:27:15;94719.22;;;13.26;100.00
10706;BME280;5404;42.656;23.336;2023-02-27T11:29:55;94703.34;;;13.63;100.00
10706;BME280;5404;42.656;23.336;2023-02-27T11:32:33;94690.72;;;13.98;100.00
10706;BME280;5404;42.656;23.336;2023-02-27T11:35:03;94692.44;;;14.66;100.00
10706;BME280;5404;42.656;23.336;2023-02-27T11:37:33;94677.47;;;14.94;100.00
10706;BME280;5404;42.656;23.336;2023-02-27T11:42:35;94694.91;;;15.29;100.00
10706;BME280;5404;42.656;23.336;2023-02-27T11:45:06;94694.72;;;15.63;100.00
10706;BME280;5404;42.656;23.336;2023-02-27T11:47:38;94700.22;;;15.17;100.00
10706;BME280;5404;42.656;23.336;2023-02-27T11:55:26;94707.88;;;15.06;100.00
10706;BME280;5404;42.656;23.336;2023-02-27T11:58:04;94701.66;;;15.14;100.00
10706;BME280;5404;42.656;23.336;2023-02-27T12:00:39;94694.38;;;14.94;100.00
10706;BME280;5404;42.656;23.336;2023-02-27T12:03:26;94681.28;;;15.13;100.00
10706;BME280;5404;42.656;23.336;2023-02-27T12:05:59;94689.38;;;15.05;100.00
10706;BME280;5404;42.656;23.336;2023-02-27T12:08:38;94690.88;;;15.23;100.00
10706;BME280;5404;42.656;23.336;2023-02-27T12:11:56;94679.84;;;15.45;100.00
10706;BME280;5404;42.656;23.336;2023-02-27T12:14:30;94676.25;;;15.33;100.00
10706;BME280;5404;42.656;23.336;2023-02-27T12:17:07;94663.47;;;15.09;100.00
10706;BME280;5404;42.656;23.336;2023-02-27T12:19:41;94683.91;;;15.51;100.00
10706;BME280;5404;42.656;23.336;2023-02-27T12:22:17;94686.66;;;15.63;100.00
10706;BME280;5404;42.656;23.336;2023-02-27T12:24:50;94661.75;;;15.34;100.00
10706;BME280;5404;42.656;23.336;2023-02-27T12:27:21;94684.09;;;15.17;100.00
10706;BME280;5404;42.656;23.336;2023-02-27T12:30:18;94694.13;;;14.79;100.00
10706;BME280;5404;42.656;23.336;2023-02-27T12:33:02;94673.25;;;14.47;100.00
10706;BME280;5404;42.656;23.336;2023-02-27T12:35:34;94679.94;;;14.24;100.00
10706;BME280;5404;42.656;23.336;2023-02-27T12:38:00;94688.44;;;14.17;100.00
10706;BME280;5404;42.656;23.336;2023-02-27T12:40:45;94684.22;;;14.16;100.00
10706;BME280;5404;42.656;23.336;2023-02-27T12:46:01;94689.72;;;14.20;100.00
10706;BME280;5404;42.656;23.336;2023-02-27T12:49:19;94692.25;;;14.07;100.00
10706;BME280;5404;42.656;23.336;2023-02-27T12:51:51;94680.59;;;14.03;100.00
10706;BME280;5404;42.656;23.336;2023-02-27T12:57:22;94690.88;;;14.01;100.00
10706;BME280;5404;42.656;23.336;2023-02-27T13:00:05;94675.41;;;14.07;100.00
10706;BME280;5404;42.656;23.336;2023-02-27T13:02:56;94685.66;;;14.05;100.00
10706;BME280;5404;42.656;23.336;2023-02-27T13:05:40;94704.09;;;14.15;100.00
10706;BME280;5404;42.656;23.336;2023-02-27T13:14:33;94697.25;;;14.35;100.00
10706;BME280;5404;42.656;23.336;2023-02-27T13:16:41;94697.25;;;14.43;100.00
10706;BME280;5404;42.656;23.336;2023-02-27T13:19:16;94702.44;;;14.40;100.00
10706;BME280;5404;42.656;23.336;2023-02-27T13:21:54;94682.31;;;14.17;100.00
10706;BME280;5404;42.656;23.336;2023-02-27T13:24:28;94697.00;;;14.02;100.00
10706;BME280;5404;42.656;23.336;2023-02-27T13:27:07;94695.94;;;13.86;100.00
10706;BME280;5404;42.656;23.336;2023-02-27T13:29:41;94662.81;;;13.99;100.00
10706;BME280;5404;42.656;23.336;2023-02-27T13:32:25;94675.09;;;13.91;100.00
10706;BME280;5404;42.656;23.336;2023-02-27T13:35:27;94685.09;;;13.65;100.00
10706;BME280;5404;42.656;23.336;2023-02-27T13:37:58;94686.34;;;13.59;100.00
10706;BME280;5404;42.656;23.336;2023-02-27T13:42:54;94677.50;;;13.33;100.00
10706;BME280;5404;42.656;23.336;2023-02-27T13:45:44;94681.91;;;13.12;100.00
10706;BME280;5404;42.656;23.336;2023-02-27T13:48:38;94700.53;;;12.86;100.00
10706;BME280;5404;42.656;23.336;2023-02-27T13:51:06;94715.69;;;12.52;100.00
10706;BME280;5404;42.656;23.336;2023-02-27T13:53:33;94719.00;;;12.27;100.00
10706;BME280;5404;42.656;23.336;2023-02-27T13:56:19;94731.09;;;12.02;100.00
10706;BME280;5404;42.656;23.336;2023-02-27T13:58:45;94732.13;;;11.93;100.00
10706;BME280;5404;42.656;23.336;2023-02-27T14:01:22;94699.72;;;11.63;100.00
10706;BME280;5404;42.656;23.336;2023-02-27T14:03:55;94747.06;;;11.71;100.00
10706;BME280;5404;42.656;23.336;2023-02-27T14:06:25;94739.19;;;11.53;100.00
10706;BME280;5404;42.656;23.336;2023-02-27T14:08:52;94730.47;;;11.25;100.00
10706;BME280;5404;42.656;23.336;2023-02-27T14:11:32;94748.75;;;11.18;100.00
10706;BME280;5404;42.656;23.336;2023-02-27T14:14:05;94765.84;;;11.04;100.00
10706;BME280;5404;42.656;23.336;2023-02-27T14:21:54;94753.41;;;10.45;100.00
10706;BME280;5404;42.656;23.336;2023-02-27T14:24:44;94769.75;;;10.25;100.00
10706;BME280;5404;42.656;23.336;2023-02-27T14:27:45;94778.81;;;10.24;100.00
10706;BME280;5404;42.656;23.336;2023-02-27T14:32:54;94794.75;;;9.92;100.00
10706;BME280;5404;42.656;23.336;2023-02-27T14:35:21;94777.19;;;9.91;100.00
10706;BME280;5404;42.656;23.336;2023-02-27T14:37:47;94788.88;;;9.76;100.00
10706;BME280;5404;42.656;23.336;2023-02-27T14:40:26;94812.09;;;9.71;100.00
10706;BME280;5404;42.656;23.336;2023-02-27T14:45:21;94809.50;;;9.66;100.00
10706;BME280;5404;42.656;23.336;2023-02-27T14:47:48;94809.66;;;9.56;100.00